Wakefield, MI (49968)

2:27 PM CDT on September 29, 2016 (GMT -0500)
Sunday Lake | | Change Station

Elev 1600 ft 46.48 °N, 89.95 °W | Updated 3 seconds ago

Mostly Cloudy
Mostly Cloudy
61.7 °F
Feels Like 61.7 °F
N
2.0
Wind Variable Wind from NE
Gusts 2.0 mph

Today
High -- | Low -- °F
--% Chance of Precip.
Yesterday
High -- | Low -- °F
Precip. -- in
Pressure 30.50 in
Visibility 10.0 miles
Clouds Few 1900 ft
Mostly Cloudy 2700 ft
Mostly Cloudy 3500 ft
Dew Point 54 °F
Humidity 76%
Rainfall 0.04 in
Snow Depth Not available.
6:56 AM 6:42 PM
Waning Crescent, 1% visible
METAR KIWD 291856Z AUTO VRB05KT 10SM FEW019 BKN027 BKN035 17/12 A3048 RMK AO2 SLP326 T01670122
Pressure 30.50 in
Visibility 10.0 miles
Clouds Few 1900 ft
Mostly Cloudy 2700 ft
Mostly Cloudy 3500 ft
Dew Point 54 °F
Humidity 76%
Rainfall 0.04 in
Snow Depth Not available.
6:56 AM 6:42 PM
Waning Crescent, 1% visible
METAR KIWD 291856Z AUTO VRB05KT 10SM FEW019 BKN027 BKN035 17/12 A3048 RMK AO2 SLP326 T01670122

10-Day Weather Forecast

Almanac

Astronomy

Sep. 29, 2016 Rise Set
Actual Time
Civil Twilight
Nautical Twilight
Astronomical Twilight
Moon
Length of Visible Light
Length of Day
Tomorrow will be .
, % of the Moon is Illuminated

Today's Extremes

State Highs State Lows

Community

WunderPhotos

Upload Photos

1,942,550 photos uploaded!

WunderBlog® & News

Nearby

Air Quality

  Air Quality AQ Index Pollutant
Not available.

Snow Depth

Station Depth Elevation

Earthquake Activity

City Distance Mag. Time & Date
Minimum magnitude displayed is 2.5.

Coastal Water Temperatures

Place Temperature

Stations

Nearby Weather Stations

Station Location Temp. Windchill Dew Point Humidity Wind Precip. Elev Updated Type
                   

Watches & Warnings

There are currently no watches in effect.